PWSweather.com
Personal Weather Stations
Station Observations
J24K28P63
Vysocina, PocatkyCZ 39464

VysocinaPocatkyCZ 39464

Lat: 49.2594238, Lon: 15.2331769

Elevation: 2011

Station Type: Vantage Pro2+

http://meteo-jirkalina.com

Latest ConditionsUpdated 2:00:19 PM GMT+01:01 Monday, May 29, 2017
Currently Today's Max Today's Min Today's Average
Temperature 82.0°F27.8°C 88.6°F31.4°C 49.4°F9.7°C 72.2°F22.3°C
Dew Point 39.4°F4.1°C 61.7°F16.5°C 39.4°F4.1°C 51.9°F11.1°C
Winds 0.1 mph SW0.2 kmh SW 4.6 mph SW7.4 kmh SW - 1.1 mph 1.8 kmh
Wind Gusts -- 7.0 mph11.3 kmh - -
Humidity 22% 90% 22% 52%
Pressure 29.92 in1013.2 mb 30.05 in1017.6 mb 29.92 in1013.2 mb -
Hour Temp Dew Point Humidity Winds Wind Gusts Pressure Precip Precip Rate Daily Precip Total
02:00 PM 87.6°F30.9°C 58.9°F14.9°C 38% 3.0 mph ENE4.8 kmh ENE 5.0 mph8.0 kmh 29.92 in1013.2 mb - 0.00 in0.0 mm 0.02 in0.5 mm
01:50 PM 88.6°F31.4°C 60.5°F15.8°C 39% 1.0 mph NE1.6 kmh NE 3.0 mph4.8 kmh 29.92 in1013.2 mb - 0.00 in0.0 mm 0.02 in0.5 mm
01:30 PM 82.4°F28.0°C 40.9°F4.9°C 23% 2.4 mph SE3.9 kmh SE 6.0 mph9.7 kmh 29.93 in1013.5 mb - 0.00 in0.0 mm 0.02 in0.5 mm
01:00 PM 81.3°F27.4°C 39.9°F4.4°C 23% 0.9 mph S1.4 kmh S 2.0 mph3.2 kmh 29.94 in1013.9 mb - 0.00 in0.0 mm 0.02 in0.5 mm
12:40 PM 87.0°F30.6°C 59.7°F15.4°C 40% Calm Calm 2.0 mph3.2 kmh 29.94 in1013.9 mb - 0.00 in0.0 mm 0.02 in0.5 mm
12:30 PM 84.9°F29.4°C 59.9°F15.5°C 43% 2.0 mph S3.2 kmh S 5.0 mph8.0 kmh 29.94 in1013.9 mb - 0.00 in0.0 mm 0.02 in0.5 mm
12:20 PM 84.9°F29.4°C 61.2°F16.2°C 45% Calm Calm 1.0 mph1.6 kmh 29.94 in1013.9 mb - 0.00 in0.0 mm 0.02 in0.5 mm
12:10 PM 84.0°F28.9°C 59.1°F15.1°C 43% 2.0 mph SE3.2 kmh SE 3.0 mph4.8 kmh 29.95 in1014.2 mb - 0.00 in0.0 mm 0.02 in0.5 mm
12:00 PM 83.7°F28.7°C 58.2°F14.6°C 42% 3.0 mph S4.8 kmh S 5.0 mph8.0 kmh 29.95 in1014.2 mb - 0.00 in0.0 mm 0.02 in0.5 mm
11:50 AM 83.3°F28.5°C 59.7°F15.4°C 45% 3.0 mph SE4.8 kmh SE 3.0 mph4.8 kmh 29.95 in1014.2 mb - 0.00 in0.0 mm 0.02 in0.5 mm
11:40 AM 83.7°F28.7°C 60.1°F15.6°C 45% 2.0 mph SSE3.2 kmh SSE 6.0 mph9.7 kmh 29.95 in1014.2 mb - 0.00 in0.0 mm 0.02 in0.5 mm
11:30 AM 84.1°F28.9°C 61.7°F16.5°C 47% 1.0 mph SSE1.6 kmh SSE 2.0 mph3.2 kmh 29.96 in1014.6 mb - 0.00 in0.0 mm 0.02 in0.5 mm
11:20 AM 82.8°F28.2°C 60.5°F15.8°C 47% Calm Calm 2.0 mph3.2 kmh 29.96 in1014.6 mb - 0.00 in0.0 mm 0.02 in0.5 mm
11:10 AM 82.8°F28.2°C 60.5°F15.8°C 47% Calm Calm 3.0 mph4.8 kmh 29.96 in1014.6 mb - 0.00 in0.0 mm 0.02 in0.5 mm
11:00 AM 82.7°F28.2°C 61.0°F16.1°C 48% 2.0 mph S3.2 kmh S 3.0 mph4.8 kmh 29.97 in1014.9 mb - 0.00 in0.0 mm 0.02 in0.5 mm
10:50 AM 81.8°F27.7°C 60.2°F15.7°C 48% 3.0 mph SE4.8 kmh SE 3.0 mph4.8 kmh 29.97 in1014.9 mb - 0.00 in0.0 mm 0.02 in0.5 mm
10:40 AM 80.4°F26.9°C 60.1°F15.6°C 50% 1.0 mph ENE1.6 kmh ENE 3.0 mph4.8 kmh 29.97 in1014.9 mb - 0.00 in0.0 mm 0.02 in0.5 mm
10:30 AM 80.2°F26.8°C 59.3°F15.2°C 49% 1.0 mph SE1.6 kmh SE 3.0 mph4.8 kmh 29.98 in1015.2 mb - 0.00 in0.0 mm 0.02 in0.5 mm
10:20 AM 80.6°F27.0°C 59.6°F15.3°C 49% 3.0 mph SE4.8 kmh SE 3.0 mph4.8 kmh 29.98 in1015.2 mb - 0.00 in0.0 mm 0.02 in0.5 mm
10:10 AM 80.1°F26.7°C 60.9°F16.1°C 52% 1.0 mph E1.6 kmh E 3.0 mph4.8 kmh 29.98 in1015.2 mb - 0.00 in0.0 mm 0.02 in0.5 mm
10:00 AM 79.9°F26.6°C 60.1°F15.6°C 51% 3.0 mph SE4.8 kmh SE 7.0 mph11.3 kmh 29.98 in1015.2 mb - 0.00 in0.0 mm 0.02 in0.5 mm
09:50 AM 78.9°F26.1°C 59.3°F15.2°C 51% 1.0 mph ESE1.6 kmh ESE 3.0 mph4.8 kmh 29.98 in1015.2 mb - 0.00 in0.0 mm 0.02 in0.5 mm
09:40 AM 78.3°F25.7°C 58.7°F14.8°C 51% 2.0 mph SE3.2 kmh SE 5.0 mph8.0 kmh 29.98 in1015.2 mb - 0.00 in0.0 mm 0.02 in0.5 mm
09:30 AM 76.7°F24.8°C 42.9°F6.1°C 30% 0.3 mph SE0.5 kmh SE 2.0 mph3.2 kmh 29.97 in1014.9 mb - 0.00 in0.0 mm 0.02 in0.5 mm
09:20 AM 77.5°F25.3°C 59.6°F15.3°C 54% 1.0 mph ENE1.6 kmh ENE 3.0 mph4.8 kmh 29.99 in1015.6 mb - 0.00 in0.0 mm 0.02 in0.5 mm
09:10 AM 77.8°F25.4°C 58.7°F14.8°C 52% 1.0 mph SE1.6 kmh SE 2.0 mph3.2 kmh 29.99 in1015.6 mb - 0.00 in0.0 mm 0.02 in0.5 mm
09:00 AM 76.3°F24.6°C 59.5°F15.3°C 56% 1.0 mph E1.6 kmh E 6.0 mph9.7 kmh 29.99 in1015.6 mb - 0.00 in0.0 mm 0.02 in0.5 mm
08:50 AM 75.6°F24.2°C 58.8°F14.9°C 56% 1.0 mph E1.6 kmh E 5.0 mph8.0 kmh 29.99 in1015.6 mb - 0.00 in0.0 mm 0.02 in0.5 mm
08:40 AM 75.0°F23.9°C 59.2°F15.1°C 58% 3.0 mph ENE4.8 kmh ENE 5.0 mph8.0 kmh 30.00 in1015.9 mb - 0.02 in0.5 mm 0.02 in0.5 mm
08:30 AM 74.9°F23.8°C 59.1°F15.1°C 58% 1.0 mph E1.6 kmh E 3.0 mph4.8 kmh 30.00 in1015.9 mb - 0.00 in0.0 mm 0.00 in0.0 mm
08:20 AM 72.5°F22.5°C 58.7°F14.8°C 62% 1.0 mph E1.6 kmh E 2.0 mph3.2 kmh 30.00 in1015.9 mb - 0.00 in0.0 mm 0.00 in0.0 mm
08:00 AM 70.1°F21.2°C 47.8°F8.8°C 45% Calm Calm -- 29.98 in1015.2 mb - 0.00 in0.0 mm 0.00 in0.0 mm
07:30 AM 66.9°F19.4°C 47.7°F8.7°C 50% Calm Calm -- 29.98 in1015.2 mb - 0.00 in0.0 mm 0.00 in0.0 mm
07:00 AM 63.3°F17.4°C 48.7°F9.3°C 59% Calm Calm -- 29.98 in1015.2 mb - 0.00 in0.0 mm 0.00 in0.0 mm
06:30 AM 60.8°F16.0°C 48.5°F9.2°C 64% Calm Calm -- 29.98 in1015.2 mb - 0.00 in0.0 mm 0.00 in0.0 mm
06:00 AM 60.2°F15.7°C 47.5°F8.6°C 63% Calm Calm -- 29.98 in1015.2 mb - 0.00 in0.0 mm 0.00 in0.0 mm
05:30 AM 54.5°F12.5°C 47.8°F8.8°C 78% Calm Calm -- 29.98 in1015.2 mb - 0.00 in0.0 mm 0.00 in0.0 mm
05:00 AM 51.0°F10.6°C 47.3°F8.5°C 87% Calm Calm -- 29.98 in1015.2 mb - 0.00 in0.0 mm 0.00 in0.0 mm
04:30 AM 49.4°F9.7°C 46.6°F8.1°C 90% Calm Calm -- 29.98 in1015.2 mb - 0.00 in0.0 mm 0.00 in0.0 mm
04:00 AM 49.6°F9.8°C 45.9°F7.7°C 87% Calm Calm -- 29.98 in1015.2 mb - 0.00 in0.0 mm 0.00 in0.0 mm
03:30 AM 50.5°F10.3°C 46.2°F7.9°C 85% Calm Calm -- 29.99 in1015.6 mb - 0.00 in0.0 mm 0.00 in0.0 mm
03:00 AM 51.6°F10.9°C 46.6°F8.1°C 83% Calm Calm -- 30.00 in1015.9 mb - 0.00 in0.0 mm 0.00 in0.0 mm
02:30 AM 53.2°F11.8°C 46.5°F8.1°C 78% Calm Calm -- 30.00 in1015.9 mb - 0.00 in0.0 mm 0.00 in0.0 mm
02:00 AM 54.2°F12.3°C 44.6°F7.0°C 70% Calm Calm -- 30.02 in1016.6 mb - 0.00 in0.0 mm 0.00 in0.0 mm
01:40 AM 58.2°F14.6°C 52.1°F11.2°C 80% 3.0 mph ESE4.8 kmh ESE 3.0 mph4.8 kmh 30.03 in1016.9 mb 0.00 in0.0 mm 0.00 in0.0 mm 0.00 in0.0 mm
01:30 AM 54.7°F12.6°C 44.0°F6.7°C 67% Calm Calm -- 30.03 in1016.9 mb - 0.00 in0.0 mm 0.00 in0.0 mm
01:20 AM 57.7°F14.3°C 51.9°F11.1°C 81% 2.5 mph SE4.0 kmh SE 3.0 mph4.8 kmh 30.03 in1016.9 mb - 0.00 in0.0 mm 0.00 in0.0 mm
01:00 AM 58.8°F14.9°C 52.3°F11.3°C 79% 1.0 mph SE1.6 kmh SE 1.0 mph1.6 kmh 30.03 in1016.9 mb 0.00 in0.0 mm 0.00 in0.0 mm 0.00 in0.0 mm
12:40 AM 59.4°F15.2°C 52.2°F11.2°C 77% 1.0 mph SE1.6 kmh SE 2.0 mph3.2 kmh 30.03 in1016.9 mb 0.00 in0.0 mm 0.00 in0.0 mm 0.00 in0.0 mm
12:30 AM 56.1°F13.4°C 42.8°F6.0°C 61% Calm Calm -- 30.05 in1017.6 mb - 0.00 in0.0 mm 0.00 in0.0 mm
12:00 AM 58.4°F14.7°C 40.8°F4.9°C 52% Calm Calm -- 30.05 in1017.6 mb - 0.00 in0.0 mm 0.00 in0.0 mm